Time;durP1;ratioP1;P1;durP2;ratioP2;P2;SDS_P1;SDS_P2;PMS_P1;PMS_P2;Temp;Humidity;BMP_temperature;BMP_pressure;BME280_temperature;BME280_humidity;BME280_pressure;Samples;Min_cycle;Max_cycle;Signal;HPM_P1;HPM_P2
2021/11/23 00:01:47;;;;;;;4.03;3.63;;;1.50;99.90;;;;;;6213604;23;20151;-79
2021/11/23 00:04:12;;;;;;;6.90;4.17;;;1.50;99.90;;;;;;6214239;23;20273;-79
2021/11/23 00:06:38;;;;;;;4.87;3.80;;;1.50;99.90;;;;;;6214738;23;20155;-79
2021/11/23 00:09:05;;;;;;;5.80;4.30;;;1.50;99.90;;;;;;6187385;23;20613;-80
2021/11/23 00:11:31;;;;;;;4.93;3.73;;;1.50;99.90;;;;;;6186861;23;20500;-82
2021/11/23 00:13:57;;;;;;;4.57;3.73;;;1.50;99.90;;;;;;6213158;23;20257;-81
2021/11/23 00:16:23;;;;;;;5.97;3.70;;;1.60;99.90;;;;;;6188193;23;20183;-80
2021/11/23 00:18:49;;;;;;;5.47;3.90;;;1.60;99.90;;;;;;6213960;23;20204;-79
2021/11/23 00:21:15;;;;;;;7.13;4.60;;;1.70;99.90;;;;;;6186935;23;20167;-79
2021/11/23 00:23:42;;;;;;;7.40;3.60;;;1.70;99.90;;;;;;6186330;23;20185;-79
2021/11/23 00:26:08;;;;;;;6.47;4.20;;;1.80;99.90;;;;;;6186621;23;20166;-78
2021/11/23 00:28:34;;;;;;;4.50;3.70;;;1.80;99.90;;;;;;6214074;23;20150;-79
2021/11/23 00:31:00;;;;;;;5.13;3.87;;;1.80;99.90;;;;;;6186660;23;20221;-80
2021/11/23 00:33:30;;;;;;;5.83;3.97;;;1.80;99.90;;;;;;6186386;23;20214;-79
2021/11/23 00:35:56;;;;;;;5.93;3.50;;;1.90;99.90;;;;;;6187324;23;20178;-79
2021/11/23 00:38:21;;;;;;;4.47;3.70;;;1.90;99.90;;;;;;6213460;23;20146;-76
2021/11/23 00:40:47;;;;;;;7.03;4.07;;;2.00;99.90;;;;;;6186841;23;20189;-77
2021/11/23 00:43:13;;;;;;;5.90;3.90;;;2.00;99.90;;;;;;6187444;23;20162;-79
2021/11/23 00:45:40;;;;;;;5.77;4.30;;;2.00;99.90;;;;;;6186966;23;20671;-77
2021/11/23 00:48:06;;;;;;;5.83;3.20;;;2.10;99.90;;;;;;6187103;23;20158;-80
2021/11/23 00:50:33;;;;;;;6.63;3.73;;;2.10;99.90;;;;;;6213338;23;20151;-78
2021/11/23 00:52:59;;;;;;;6.87;3.90;;;2.20;99.90;;;;;;6186728;23;20169;-78
2021/11/23 00:55:25;;;;;;;6.70;3.67;;;2.20;99.90;;;;;;6186452;23;20194;-81
2021/11/23 00:57:50;;;;;;;5.97;3.70;;;2.30;99.90;;;;;;6186284;23;20168;-80
2021/11/23 01:00:16;;;;;;;5.23;3.53;;;2.40;99.90;;;;;;6211713;23;20170;-80
2021/11/23 01:02:42;;;;;;;5.57;4.03;;;2.40;99.90;;;;;;6210088;23;20158;-79
2021/11/23 01:05:08;;;;;;;6.77;3.93;;;2.40;99.90;;;;;;6210037;23;20239;-78
2021/11/23 01:07:34;;;;;;;7.47;4.07;;;2.40;99.90;;;;;;6210791;23;20150;-78
2021/11/23 01:10:00;;;;;;;6.27;4.00;;;2.30;99.90;;;;;;6210646;23;20158;-77
2021/11/23 01:12:27;;;;;;;5.30;3.30;;;2.20;99.90;;;;;;6209608;23;20218;-81
2021/11/23 01:14:52;;;;;;;6.77;3.80;;;2.10;99.90;;;;;;6182700;23;20530;-80
2021/11/23 01:17:18;;;;;;;5.53;3.33;;;2.10;99.90;;;;;;6183215;23;20154;-79
2021/11/23 01:19:44;;;;;;;6.07;3.70;;;2.10;99.90;;;;;;6209818;23;20178;-78
2021/11/23 01:22:10;;;;;;;6.60;3.53;;;2.10;99.90;;;;;;6183183;23;21066;-76
2021/11/23 01:24:36;;;;;;;5.07;3.70;;;2.10;99.90;;;;;;6182766;23;20512;-77
2021/11/23 01:27:02;;;;;;;4.33;3.00;;;2.20;99.90;;;;;;6183135;23;20169;-77
2021/11/23 01:29:28;;;;;;;6.03;3.50;;;2.20;99.90;;;;;;6182351;23;20165;-79
2021/11/23 01:31:53;;;;;;;4.63;3.10;;;2.20;99.90;;;;;;6182671;23;20170;-78
2021/11/23 01:34:20;;;;;;;4.50;3.10;;;2.20;99.90;;;;;;6209401;23;20182;-79
2021/11/23 01:36:50;;;;;;;5.20;3.63;;;2.30;99.90;;;;;;6182166;23;20158;-79
2021/11/23 01:39:16;;;;;;;5.80;3.53;;;2.30;99.90;;;;;;6181962;23;20150;-78
2021/11/23 01:41:42;;;;;;;5.90;3.13;;;2.30;99.90;;;;;;6182644;23;20548;-79
2021/11/23 01:44:09;;;;;;;5.37;3.40;;;2.30;99.90;;;;;;6208353;23;20170;-78
2021/11/23 01:46:35;;;;;;;6.63;2.87;;;2.20;99.90;;;;;;6182938;23;20158;-79
2021/11/23 01:49:01;;;;;;;5.30;3.30;;;2.10;99.90;;;;;;6183234;23;20166;-79
2021/11/23 01:51:27;;;;;;;4.40;3.20;;;2.10;99.90;;;;;;6208373;23;20500;-80
2021/11/23 01:53:53;;;;;;;6.30;2.80;;;2.20;99.90;;;;;;6181587;23;20184;-80
2021/11/23 01:56:18;;;;;;;5.47;3.93;;;2.20;99.90;;;;;;6181424;23;20793;-78
2021/11/23 01:58:44;;;;;;;8.40;3.40;;;2.30;99.90;;;;;;6181378;23;20158;-79
2021/11/23 02:01:11;;;;;;;4.40;3.10;;;2.40;99.90;;;;;;6181684;23;20165;-80
2021/11/23 02:03:38;;;;;;;4.97;3.43;;;2.40;99.90;;;;;;6208008;23;20614;-79
2021/11/23 02:06:05;;;;;;;4.77;3.27;;;2.50;99.90;;;;;;6181191;23;20232;-79
2021/11/23 02:08:31;;;;;;;5.37;3.37;;;2.50;99.90;;;;;;6207348;23;20165;-80
2021/11/23 02:10:57;;;;;;;5.17;3.70;;;2.50;99.90;;;;;;6207826;23;20158;-80
2021/11/23 02:13:23;;;;;;;5.43;3.27;;;2.40;99.90;;;;;;6181195;23;20169;-79
2021/11/23 02:15:50;;;;;;;4.00;3.20;;;2.40;99.90;;;;;;6208973;23;20197;-77
2021/11/23 02:18:21;;;;;;;4.20;2.90;;;2.30;99.90;;;;;;6211307;23;20147;-81
2021/11/23 02:20:47;;;;;;;4.87;3.60;;;2.20;99.90;;;;;;6185249;23;20186;-78
2021/11/23 02:23:14;;;;;;;5.53;3.83;;;2.30;99.90;;;;;;6185454;23;20159;-79
2021/11/23 02:25:40;;;;;;;6.63;3.67;;;2.30;99.90;;;;;;6184123;23;20546;-81
2021/11/23 02:28:07;;;;;;;5.87;3.40;;;2.30;99.90;;;;;;6184295;23;20224;-79
2021/11/23 02:30:39;;;;;;;6.27;3.63;;;2.40;99.90;;;;;;6184634;23;20162;-79
2021/11/23 02:33:05;;;;;;;5.93;3.90;;;2.40;99.90;;;;;;6185247;23;20189;-78
2021/11/23 02:35:33;;;;;;;6.23;3.87;;;2.50;99.90;;;;;;6210981;23;20186;-82
2021/11/23 02:37:58;;;;;;;6.80;3.67;;;2.50;99.90;;;;;;6212019;23;20524;-80
2021/11/23 02:40:24;;;;;;;4.53;3.60;;;2.70;99.90;;;;;;6185187;23;20165;-81
2021/11/23 02:42:51;;;;;;;5.10;3.70;;;2.70;99.90;;;;;;6185257;23;20158;-78
2021/11/23 02:45:19;;;;;;;5.13;3.57;;;2.70;99.90;;;;;;6211979;23;20675;-82
2021/11/23 02:47:45;;;;;;;6.50;3.70;;;2.80;99.90;;;;;;6211097;23;20595;-80
2021/11/23 02:50:15;;;;;;;5.13;3.93;;;2.80;99.90;;;;;;6183543;23;20710;-79
2021/11/23 02:52:49;;;;;;;6.13;3.90;;;3.00;99.90;;;;;;6180209;23;20197;-78
2021/11/23 02:55:17;;;;;;;5.30;3.47;;;3.10;99.90;;;;;;6211479;23;20185;-81
2021/11/23 02:57:43;;;;;;;4.57;3.40;;;3.10;99.90;;;;;;6211804;23;20170;-80
2021/11/23 03:00:17;;;;;;;5.17;3.53;;;3.20;99.90;;;;;;6184196;23;20853;-81
2021/11/23 03:02:43;;;;;;;5.90;3.53;;;3.30;99.90;;;;;;6210761;23;20451;-80
2021/11/23 03:05:09;;;;;;;6.47;3.63;;;3.30;99.90;;;;;;6183926;23;20182;-78
2021/11/23 03:07:35;;;;;;;4.97;3.27;;;3.20;99.90;;;;;;6185486;23;20166;-80
2021/11/23 03:10:03;;;;;;;9.07;3.93;;;3.30;99.90;;;;;;6184671;23;20162;-81
2021/11/23 03:12:29;;;;;;;7.77;3.27;;;3.40;99.90;;;;;;6211915;23;20178;-80
2021/11/23 03:14:55;;;;;;;4.10;2.97;;;3.30;99.90;;;;;;6210943;23;20192;-79
2021/11/23 03:17:20;;;;;;;6.90;3.77;;;3.30;99.90;;;;;;6184902;23;20165;-77
2021/11/23 03:19:48;;;;;;;6.70;3.57;;;3.30;99.90;;;;;;6184800;23;20261;-79
2021/11/23 03:22:14;;;;;;;5.80;3.67;;;3.40;99.90;;;;;;6185014;23;20163;-77
2021/11/23 03:24:40;;;;;;;6.13;3.23;;;3.30;99.90;;;;;;6185084;23;20263;-80
2021/11/23 03:27:08;;;;;;;5.53;3.13;;;3.50;99.90;;;;;;6184966;23;20162;-76
2021/11/23 03:29:34;;;;;;;5.83;3.40;;;3.50;99.90;;;;;;6184337;23;20162;-79
2021/11/23 03:32:00;;;;;;;6.87;3.30;;;3.60;99.90;;;;;;6212225;23;20166;-78
2021/11/23 03:34:26;;;;;;;4.03;2.90;;;3.50;99.90;;;;;;6184866;23;20186;-80
2021/11/23 03:36:52;;;;;;;4.30;2.70;;;3.60;99.90;;;;;;6186740;23;20208;-78
2021/11/23 03:39:18;;;;;;;5.40;2.90;;;3.60;99.90;;;;;;6213625;23;20157;-81
2021/11/23 03:41:44;;;;;;;5.97;3.17;;;3.80;99.90;;;;;;6212889;23;20153;-78
2021/11/23 03:44:10;;;;;;;7.10;3.47;;;3.80;99.90;;;;;;6186243;23;20228;-80
2021/11/23 03:46:35;;;;;;;6.07;3.10;;;4.00;99.90;;;;;;6213552;23;20225;-82
2021/11/23 03:49:01;;;;;;;4.57;2.87;;;4.00;99.90;;;;;;6186859;23;20178;-83
2021/11/23 03:51:27;;;;;;;11.83;3.87;;;3.90;99.90;;;;;;6212277;23;20150;-79
2021/11/23 03:53:53;;;;;;;6.00;3.80;;;3.90;99.90;;;;;;6212989;23;20564;-78
2021/11/23 03:56:19;;;;;;;5.90;3.60;;;4.00;99.90;;;;;;6213111;23;20208;-77
2021/11/23 03:58:44;;;;;;;6.37;3.30;;;3.90;99.90;;;;;;6186218;23;20518;-79
2021/11/23 04:01:10;;;;;;;5.47;3.50;;;3.90;99.90;;;;;;6213608;23;20146;-78
2021/11/23 04:03:37;;;;;;;4.93;3.40;;;4.00;99.90;;;;;;6186245;23;20162;-79
2021/11/23 04:06:04;;;;;;;5.27;3.60;;;3.90;99.90;;;;;;6212931;23;20233;-78
2021/11/23 04:08:31;;;;;;;6.70;3.60;;;4.00;99.90;;;;;;6187177;23;20204;-80
2021/11/23 04:10:56;;;;;;;5.00;3.50;;;4.10;99.90;;;;;;6188136;23;20162;-79
2021/11/23 04:13:22;;;;;;;5.73;3.37;;;4.00;99.90;;;;;;6187829;23;20508;-80
2021/11/23 04:15:49;;;;;;;6.20;3.83;;;4.00;99.90;;;;;;6215674;23;20236;-79
2021/11/23 04:18:15;;;;;;;7.10;3.80;;;4.00;99.90;;;;;;6189786;23;20293;-80
2021/11/23 04:20:40;;;;;;;6.63;3.63;;;4.10;99.90;;;;;;6189319;23;20154;-80
2021/11/23 04:23:06;;;;;;;7.50;4.47;;;4.10;99.90;;;;;;6217670;23;20538;-78
2021/11/23 04:25:32;;;;;;;4.73;3.33;;;4.10;99.90;;;;;;6186537;23;20269;-79
2021/11/23 04:27:58;;;;;;;5.23;4.20;;;4.10;99.90;;;;;;6187450;23;20550;-81
2021/11/23 04:30:24;;;;;;;6.33;4.37;;;4.20;99.90;;;;;;6213111;23;20594;-81
2021/11/23 04:32:50;;;;;;;10.70;4.30;;;4.20;99.90;;;;;;6185346;23;20161;-79
2021/11/23 04:35:16;;;;;;;5.97;4.83;;;4.10;99.90;;;;;;6212707;23;20179;-79
2021/11/23 04:37:43;;;;;;;7.07;4.80;;;4.10;99.90;;;;;;6186182;23;20158;-78
2021/11/23 04:40:10;;;;;;;7.40;5.10;;;4.10;99.90;;;;;;6213384;23;20607;-79
2021/11/23 04:42:37;;;;;;;6.53;4.23;;;4.10;99.90;;;;;;6213775;23;20209;-80
2021/11/23 04:45:07;;;;;;;8.17;4.83;;;4.10;99.90;;;;;;6185518;23;20268;-81
2021/11/23 04:47:34;;;;;;;9.13;5.93;;;4.10;99.90;;;;;;6213663;23;20150;-78
2021/11/23 04:49:59;;;;;;;9.97;5.43;;;4.20;99.90;;;;;;6213374;23;20157;-79
2021/11/23 04:52:26;;;;;;;10.07;5.13;;;4.10;99.90;;;;;;6185742;23;20167;-77
2021/11/23 04:54:51;;;;;;;9.20;5.83;;;4.10;99.90;;;;;;6183743;23;20194;-77
2021/11/23 04:57:17;;;;;;;11.47;6.47;;;4.10;99.90;;;;;;6210533;23;20205;-79
2021/11/23 04:59:43;;;;;;;12.47;6.23;;;4.00;99.90;;;;;;6183479;23;20257;-80
2021/11/23 05:02:09;;;;;;;11.60;5.87;;;4.00;99.90;;;;;;6184030;23;20155;-79
2021/11/23 05:04:36;;;;;;;9.70;5.83;;;4.00;99.90;;;;;;6210482;23;20170;-77
2021/11/23 05:07:01;;;;;;;11.50;6.07;;;4.00;99.90;;;;;;6209911;23;20637;-77
2021/11/23 05:09:27;;;;;;;10.50;5.90;;;4.00;99.90;;;;;;6210089;23;20245;-79
2021/11/23 05:11:53;;;;;;;8.90;6.17;;;3.90;99.90;;;;;;6184033;23;20176;-82
2021/11/23 05:14:18;;;;;;;11.53;6.17;;;3.90;99.90;;;;;;6184617;23;20194;-79
2021/11/23 05:16:44;;;;;;;9.93;6.30;;;4.00;99.90;;;;;;6184363;23;20147;-76
2021/11/23 05:19:10;;;;;;;9.17;6.63;;;4.00;99.90;;;;;;6182805;23;20159;-79
2021/11/23 05:21:35;;;;;;;11.47;6.30;;;4.00;99.90;;;;;;6210121;23;20208;-79
2021/11/23 05:24:02;;;;;;;13.00;6.70;;;4.00;99.90;;;;;;6182606;23;20174;-80
2021/11/23 05:26:28;;;;;;;12.87;7.67;;;4.10;99.90;;;;;;6182073;23;20189;-77
2021/11/23 05:28:54;;;;;;;9.37;6.30;;;4.10;99.90;;;;;;6183994;23;20166;-78
2021/11/23 05:31:20;;;;;;;10.40;7.30;;;4.00;99.90;;;;;;6183870;23;20158;-80
2021/11/23 05:33:46;;;;;;;12.17;7.20;;;4.10;99.90;;;;;;6183350;23;20231;-79
2021/11/23 05:36:11;;;;;;;10.20;7.17;;;4.10;99.90;;;;;;6183530;23;20193;-79
2021/11/23 05:38:38;;;;;;;11.87;6.77;;;4.10;99.90;;;;;;6210460;23;20204;-79
2021/11/23 05:41:04;;;;;;;10.93;7.17;;;4.00;99.90;;;;;;6184347;23;20209;-79
2021/11/23 05:43:31;;;;;;;10.17;6.83;;;4.00;99.90;;;;;;6210386;23;20155;-78
2021/11/23 05:45:58;;;;;;;11.33;6.73;;;4.10;99.90;;;;;;6210238;23;20154;-77
2021/11/23 05:48:23;;;;;;;9.50;6.87;;;4.10;99.90;;;;;;6210479;23;20150;-77
2021/11/23 05:50:49;;;;;;;10.37;7.00;;;4.00;99.90;;;;;;6209442;23;20161;-79
2021/11/23 05:53:15;;;;;;;10.47;7.30;;;4.10;99.90;;;;;;6183343;23;20162;-79
2021/11/23 05:55:41;;;;;;;10.23;7.33;;;4.00;99.90;;;;;;6208861;23;21216;-78
2021/11/23 05:58:08;;;;;;;10.40;7.07;;;4.10;99.90;;;;;;6182477;23;20182;-78
2021/11/23 06:00:34;;;;;;;10.87;7.47;;;4.00;99.90;;;;;;6209322;23;20150;-79
2021/11/23 06:03:01;;;;;;;10.60;7.20;;;4.00;99.90;;;;;;6182368;23;20190;-79
2021/11/23 06:05:27;;;;;;;10.37;6.90;;;4.00;99.90;;;;;;6209016;23;20173;-78
2021/11/23 06:07:53;;;;;;;10.70;7.53;;;4.00;99.90;;;;;;6209101;23;20216;-78
2021/11/23 06:10:19;;;;;;;12.70;7.43;;;4.00;99.90;;;;;;6182440;23;20258;-77
2021/11/23 06:12:45;;;;;;;12.57;8.07;;;4.20;99.90;;;;;;6183343;23;20602;-78
2021/11/23 06:15:13;;;;;;;12.10;7.60;;;4.10;99.90;;;;;;6181378;23;20264;-78
2021/11/23 06:17:39;;;;;;;10.30;6.93;;;4.20;99.90;;;;;;6208737;23;20645;-77
2021/11/23 06:20:06;;;;;;;10.93;7.47;;;4.10;99.90;;;;;;6208604;23;20177;-79
2021/11/23 06:22:34;;;;;;;11.43;7.40;;;4.10;99.90;;;;;;6181573;23;20185;-78
2021/11/23 06:24:59;;;;;;;11.43;7.63;;;4.10;99.90;;;;;;6208301;23;20220;-78
2021/11/23 06:27:25;;;;;;;13.17;7.93;;;4.10;99.90;;;;;;6181492;23;20158;-80
2021/11/23 06:29:51;;;;;;;13.13;8.30;;;4.10;99.90;;;;;;6180951;23;20194;-78
2021/11/23 06:32:17;;;;;;;13.83;8.67;;;4.10;99.90;;;;;;6181805;23;20603;-80
2021/11/23 06:34:43;;;;;;;10.80;7.30;;;4.10;99.90;;;;;;6181522;23;20197;-80
2021/11/23 06:37:09;;;;;;;11.57;7.20;;;4.10;99.90;;;;;;6209523;23;20154;-81
2021/11/23 06:39:34;;;;;;;10.63;7.63;;;4.20;99.90;;;;;;6212345;23;20170;-77
2021/11/23 06:42:00;;;;;;;12.97;9.30;;;4.20;99.90;;;;;;6187085;23;20186;-80
2021/11/23 06:44:26;;;;;;;12.13;8.50;;;4.30;99.90;;;;;;6186116;23;20182;-78
2021/11/23 06:46:51;;;;;;;15.07;9.53;;;4.20;99.90;;;;;;6186685;23;20173;-80
2021/11/23 06:49:17;;;;;;;11.67;8.17;;;4.20;99.90;;;;;;6185363;23;20165;-79
2021/11/23 06:51:42;;;;;;;13.77;8.20;;;4.20;99.90;;;;;;6185584;23;20158;-79
2021/11/23 06:54:08;;;;;;;12.20;8.33;;;4.20;99.90;;;;;;6185119;23;20236;-81
2021/11/23 06:56:34;;;;;;;14.60;8.80;;;4.20;99.90;;;;;;6185316;23;20208;-79
2021/11/23 06:59:01;;;;;;;13.30;8.83;;;4.30;99.90;;;;;;6212753;23;20146;-79
2021/11/23 07:01:26;;;;;;;13.20;8.73;;;4.30;99.90;;;;;;6214158;23;20151;-79
2021/11/23 07:03:52;;;;;;;12.13;8.50;;;4.40;99.90;;;;;;6185272;23;20182;-79
2021/11/23 07:06:18;;;;;;;14.00;8.40;;;4.40;99.90;;;;;;6184131;23;20169;-80
2021/11/23 07:08:43;;;;;;;11.87;8.37;;;4.30;99.90;;;;;;6187563;23;20158;-82
2021/11/23 07:11:11;;;;;;;14.27;9.00;;;4.30;99.90;;;;;;6187861;23;20165;-79
2021/11/23 07:13:37;;;;;;;12.73;8.13;;;4.30;99.90;;;;;;6187801;23;20162;-82
2021/11/23 07:16:03;;;;;;;15.83;8.77;;;4.30;99.90;;;;;;6189510;23;20196;-79
2021/11/23 07:18:29;;;;;;;12.60;8.23;;;4.30;99.90;;;;;;6215497;23;20151;-79
2021/11/23 07:20:55;;;;;;;12.50;7.60;;;4.30;99.90;;;;;;6217473;23;20146;-80
2021/11/23 07:23:23;;;;;;;12.70;8.00;;;4.40;99.90;;;;;;6215788;23;20154;-80
2021/11/23 07:25:49;;;;;;;11.90;7.30;;;4.40;99.90;;;;;;6189010;23;20221;-80
2021/11/23 07:28:15;;;;;;;10.73;8.00;;;4.40;99.90;;;;;;6189233;23;20166;-82
2021/11/23 07:30:41;;;;;;;13.13;8.50;;;4.50;99.90;;;;;;6187400;23;20253;-78
2021/11/23 07:33:06;;;;;;;13.80;8.03;;;4.50;99.90;;;;;;6187972;23;20173;-77
2021/11/23 07:35:32;;;;;;;11.80;8.07;;;4.50;99.90;;;;;;6187836;23;20280;-80
2021/11/23 07:37:59;;;;;;;11.60;7.83;;;4.60;99.90;;;;;;6190098;23;20154;-78
2021/11/23 07:40:25;;;;;;;10.70;8.00;;;4.60;99.90;;;;;;6190838;23;20150;-78
2021/11/23 07:42:50;;;;;;;10.57;7.57;;;4.60;99.90;;;;;;6213444;23;20166;-79
2021/11/23 07:45:16;;;;;;;12.20;8.33;;;4.60;99.90;;;;;;6187069;23;20209;-82
2021/11/23 07:47:42;;;;;;;10.73;7.80;;;4.60;99.90;;;;;;6186339;23;20297;-80
2021/11/23 07:50:08;;;;;;;14.10;8.77;;;4.60;99.90;;;;;;6186031;23;20157;-80
2021/11/23 07:52:34;;;;;;;10.93;7.83;;;4.80;99.90;;;;;;6213152;23;20225;-79
2021/11/23 07:55:01;;;;;;;11.23;7.43;;;4.90;99.90;;;;;;6205357;23;20178;-77
2021/11/23 07:57:26;;;;;;;10.73;8.23;;;5.00;99.90;;;;;;6201744;23;20150;-77
2021/11/23 07:59:52;;;;;;;13.63;8.87;;;5.00;99.90;;;;;;6183921;23;20151;-79
2021/11/23 08:02:17;;;;;;;11.27;7.93;;;5.10;99.90;;;;;;6181531;23;20559;-79
2021/11/23 08:04:43;;;;;;;10.97;7.90;;;5.10;99.90;;;;;;6209640;23;20245;-79
2021/11/23 08:07:09;;;;;;;13.30;8.67;;;5.10;99.90;;;;;;6213211;23;20158;-79
2021/11/23 08:09:34;;;;;;;15.97;8.77;;;5.10;99.90;;;;;;6185358;23;20159;-79
2021/11/23 08:12:00;;;;;;;10.33;7.93;;;5.00;99.90;;;;;;6185429;23;20898;-79
2021/11/23 08:14:27;;;;;;;11.70;8.30;;;5.10;99.90;;;;;;6184775;23;20304;-82
2021/11/23 08:16:54;;;;;;;10.73;7.83;;;5.00;99.90;;;;;;6182061;23;20233;-79
2021/11/23 08:19:20;;;;;;;14.23;8.63;;;5.00;99.90;;;;;;6184109;23;20162;-78
2021/11/23 08:21:46;;;;;;;13.23;8.03;;;5.00;99.90;;;;;;6210499;23;20487;-79
2021/11/23 08:24:11;;;;;;;10.47;7.57;;;5.00;99.90;;;;;;6184057;23;20236;-79
2021/11/23 08:26:38;;;;;;;13.67;9.10;;;5.00;99.90;;;;;;6184006;23;20173;-78
2021/11/23 08:29:04;;;;;;;11.77;8.53;;;5.00;99.90;;;;;;6207479;23;20209;-79
2021/11/23 08:31:29;;;;;;;15.53;9.10;;;5.10;99.90;;;;;;6178748;23;20193;-78
2021/11/23 08:33:55;;;;;;;14.40;9.27;;;5.20;99.90;;;;;;6180066;23;20270;-79
2021/11/23 08:36:21;;;;;;;15.10;9.00;;;5.40;99.90;;;;;;6184543;23;20178;-76
2021/11/23 08:38:47;;;;;;;13.13;8.63;;;5.40;99.90;;;;;;6184251;23;20155;-77
2021/11/23 08:41:13;;;;;;;14.00;8.93;;;5.30;99.90;;;;;;6185061;23;20154;-79
2021/11/23 08:43:40;;;;;;;14.10;8.77;;;5.50;99.90;;;;;;6183681;23;20803;-79
2021/11/23 08:46:06;;;;;;;14.73;9.03;;;5.40;99.90;;;;;;6182853;23;20161;-80
2021/11/23 08:48:33;;;;;;;15.47;8.57;;;5.40;99.90;;;;;;6180516;23;20159;-79
2021/11/23 08:51:00;;;;;;;16.00;9.73;;;5.40;99.90;;;;;;6206615;23;20629;-77
2021/11/23 08:53:26;;;;;;;14.97;9.47;;;5.50;99.90;;;;;;6180272;23;20173;-78
2021/11/23 08:55:51;;;;;;;14.83;9.63;;;5.50;99.90;;;;;;6181701;23;20182;-78
2021/11/23 08:58:17;;;;;;;18.97;10.97;;;5.50;99.90;;;;;;6207465;23;20612;-78
2021/11/23 09:00:44;;;;;;;15.10;9.90;;;5.60;99.90;;;;;;6206947;23;20488;-79
2021/11/23 09:03:10;;;;;;;16.50;10.10;;;5.50;99.90;;;;;;6179131;23;20505;-77
2021/11/23 09:05:36;;;;;;;18.03;10.43;;;5.60;99.90;;;;;;6206885;23;20178;-77
2021/11/23 09:08:04;;;;;;;16.93;9.97;;;5.50;99.90;;;;;;6206968;23;20158;-78
2021/11/23 09:10:35;;;;;;;16.50;10.93;;;5.60;99.90;;;;;;6179674;23;20158;-78
2021/11/23 09:13:02;;;;;;;21.40;11.33;;;5.80;99.90;;;;;;6179466;23;20615;-79
2021/11/23 09:15:28;;;;;;;18.83;10.67;;;5.80;99.90;;;;;;6207456;23;20217;-78
2021/11/23 09:18:00;;;;;;;18.43;10.70;;;5.80;99.90;;;;;;6187126;23;20169;-79
2021/11/23 09:20:33;;;;;;;16.20;10.17;;;5.80;99.90;;;;;;6187280;23;20575;-78
2021/11/23 09:22:59;;;;;;;20.40;10.70;;;5.80;99.90;;;;;;6185455;23;20169;-81
2021/11/23 09:25:24;;;;;;;15.77;10.23;;;5.80;99.90;;;;;;6181006;23;20182;-77
2021/11/23 09:27:50;;;;;;;18.17;10.73;;;5.90;99.90;;;;;;6179885;23;20166;-80
2021/11/23 09:30:15;;;;;;;15.83;10.27;;;6.00;99.90;;;;;;6206276;23;20218;-80
2021/11/23 09:32:41;;;;;;;15.97;10.30;;;6.10;99.90;;;;;;6205245;23;20647;-78
2021/11/23 09:35:10;;;;;;;16.67;10.27;;;6.10;99.90;;;;;;6206068;23;20181;-79
2021/11/23 09:37:36;;;;;;;13.93;9.77;;;6.10;99.90;;;;;;6211243;23;20193;-77
2021/11/23 09:40:02;;;;;;;17.80;10.37;;;6.00;99.90;;;;;;6180035;23;20610;-77
2021/11/23 09:42:27;;;;;;;17.43;10.03;;;6.00;99.90;;;;;;6206050;23;20154;-78
2021/11/23 09:44:53;;;;;;;19.70;11.77;;;6.10;99.90;;;;;;6180391;23;20582;-78
2021/11/23 09:47:19;;;;;;;20.40;10.63;;;6.10;99.90;;;;;;6180857;23;20158;-80
2021/11/23 09:49:45;;;;;;;14.80;10.23;;;6.10;99.90;;;;;;6207690;23;20193;-78
2021/11/23 09:52:11;;;;;;;16.30;10.23;;;6.10;99.90;;;;;;6181213;23;20162;-78
2021/11/23 09:54:39;;;;;;;14.57;9.57;;;6.20;99.90;;;;;;6208716;23;20423;-81
2021/11/23 09:57:05;;;;;;;15.90;9.83;;;6.10;99.90;;;;;;6180188;23;20187;-79
2021/11/23 09:59:31;;;;;;;15.47;9.77;;;6.10;99.90;;;;;;6181964;23;20163;-82
2021/11/23 10:01:59;;;;;;;18.13;10.03;;;6.00;99.90;;;;;;6185198;23;20158;-77
2021/11/23 10:04:33;;;;;;;15.17;9.53;;;6.00;99.90;;;;;;5059778;28;21147;-75
2021/11/23 10:07:02;;;;;;;16.83;9.63;;;6.00;99.90;;;;;;5077476;28;20605;-74
2021/11/23 10:09:44;;;;;;;17.27;10.57;;;6.20;99.90;;;;;;5061428;28;20174;-74
2021/11/23 10:12:24;;;;;;;16.80;10.03;;;6.30;99.90;;;;;;5060779;28;20262;-74
2021/11/23 10:15:17;;;;;;;17.90;10.43;;;6.30;99.90;;;;;;5057784;28;20497;-75
2021/11/23 10:17:48;;;;;;;16.87;10.80;;;6.30;99.90;;;;;;5060030;28;20268;-75
2021/11/23 10:20:32;;;;;;;18.97;10.80;;;6.30;99.90;;;;;;5059415;28;20181;-74
2021/11/23 10:23:22;;;;;;;17.10;10.13;;;6.20;99.90;;;;;;5059895;28;20253;-75
2021/11/23 10:25:55;;;;;;;15.20;9.43;;;6.20;99.90;;;;;;5059112;28;20281;-75
2021/11/23 10:28:23;;;;;;;16.63;10.00;;;6.20;99.90;;;;;;5058672;28;20185;-75
2021/11/23 10:30:50;;;;;;;14.57;9.27;;;6.10;99.90;;;;;;5056924;28;20193;-76
2021/11/23 10:33:17;;;;;;;18.30;10.37;;;6.20;99.90;;;;;;5056109;28;20320;-75
2021/11/23 10:35:44;;;;;;;14.87;10.13;;;6.30;99.90;;;;;;5057426;28;20555;-76
2021/11/23 10:38:11;;;;;;;15.13;10.50;;;6.30;99.90;;;;;;5046804;28;20190;-75
2021/11/23 10:40:38;;;;;;;14.20;10.50;;;6.30;99.90;;;;;;5056593;28;20194;-75
2021/11/23 10:43:10;;;;;;;18.23;11.10;;;6.30;99.90;;;;;;5055880;28;20279;-76
2021/11/23 10:45:45;;;;;;;15.50;10.00;;;6.40;99.90;;;;;;5056682;28;20178;-75
2021/11/23 10:48:13;;;;;;;14.40;9.97;;;6.40;99.90;;;;;;5055308;28;20181;-76
2021/11/23 10:50:41;;;;;;;16.10;11.43;;;6.40;99.90;;;;;;5056713;28;20239;-77
2021/11/23 10:53:13;;;;;;;16.00;10.73;;;6.40;99.90;;;;;;5053952;28;20925;-74
2021/11/23 10:55:43;;;;;;;16.70;10.07;;;6.40;99.90;;;;;;5058003;28;20247;-74
2021/11/23 10:58:11;;;;;;;15.20;10.53;;;6.40;99.90;;;;;;5058226;28;20265;-75
2021/11/23 11:00:39;;;;;;;15.83;10.10;;;6.40;99.90;;;;;;5058288;28;20292;-75
2021/11/23 11:03:06;;;;;;;16.13;9.80;;;6.40;99.90;;;;;;5056992;28;20263;-75
2021/11/23 11:05:38;;;;;;;14.57;9.97;;;6.40;99.90;;;;;;5057787;28;20178;-74
2021/11/23 11:08:04;;;;;;;16.37;10.00;;;6.40;99.90;;;;;;5056613;28;20181;-76
2021/11/23 11:10:32;;;;;;;15.27;9.97;;;6.30;99.90;;;;;;5056058;28;20186;-75
2021/11/23 11:13:00;;;;;;;14.10;9.67;;;6.30;99.90;;;;;;5056149;28;20206;-75
2021/11/23 11:15:38;;;;;;;12.57;8.57;;;6.40;99.90;;;;;;5045575;28;20195;-78
2021/11/23 11:18:12;;;;;;;12.33;8.40;;;6.30;99.90;;;;;;5043106;28;20181;-75
2021/11/23 11:20:45;;;;;;;13.67;9.33;;;6.30;99.90;;;;;;5043225;28;20277;-75
2021/11/23 11:23:20;;;;;;;15.33;10.37;;;6.30;99.90;;;;;;5042937;28;20209;-76
2021/11/23 11:26:14;;;;;;;15.50;10.30;;;6.30;99.90;;;;;;5043102;28;20201;-75
2021/11/23 11:28:48;;;;;;;18.77;10.30;;;6.30;99.90;;;;;;5044174;28;20181;-75
2021/11/23 11:31:42;;;;;;;15.27;9.87;;;6.30;99.90;;;;;;5043477;28;20620;-77
2021/11/23 11:34:26;;;;;;;14.30;9.90;;;6.30;99.90;;;;;;5044075;28;20236;-76
2021/11/23 11:36:59;;;;;;;15.10;9.10;;;6.40;99.90;;;;;;5044427;28;20558;-75
2021/11/23 11:39:48;;;;;;;17.50;10.80;;;6.40;99.90;;;;;;5036324;28;20216;-77
2021/11/23 11:42:20;;;;;;;13.73;9.50;;;6.30;99.90;;;;;;5034460;28;20245;-75
2021/11/23 11:44:48;;;;;;;17.13;8.97;;;6.30;99.90;;;;;;5042660;28;20248;-74
2021/11/23 11:47:19;;;;;;;14.20;10.17;;;6.40;99.90;;;;;;5044522;28;20174;-78
2021/11/23 11:49:55;;;;;;;14.77;10.07;;;6.40;99.90;;;;;;5042499;28;20209;-74
2021/11/23 11:52:23;;;;;;;15.40;9.20;;;6.40;99.90;;;;;;5043246;28;20249;-74
2021/11/23 11:55:15;;;;;;;15.30;10.07;;;6.40;99.90;;;;;;5040702;28;20192;-74
2021/11/23 11:57:44;;;;;;;16.37;9.50;;;6.40;99.90;;;;;;5042507;28;20181;-73
2021/11/23 12:00:22;;;;;;;14.80;9.40;;;6.50;99.90;;;;;;5043292;28;20170;-75
2021/11/23 12:02:48;;;;;;;14.67;8.43;;;6.50;99.90;;;;;;5040926;28;20871;-75
2021/11/23 12:05:15;;;;;;;12.87;9.20;;;6.50;99.90;;;;;;5044141;28;20174;-74
2021/11/23 12:07:45;;;;;;;12.27;8.57;;;6.40;99.90;;;;;;5040269;28;20627;-74
2021/11/23 12:10:33;;;;;;;12.87;8.73;;;6.40;99.90;;;;;;5045437;28;20224;-73
2021/11/23 12:13:14;;;;;;;12.70;8.70;;;6.30;99.90;;;;;;5042575;28;20271;-75
2021/11/23 12:16:00;;;;;;;12.43;8.63;;;6.40;99.90;;;;;;5042690;28;20224;-75
2021/11/23 12:18:47;;;;;;;15.00;9.17;;;6.40;99.90;;;;;;5042425;28;20189;-76
2021/11/23 12:21:17;;;;;;;14.30;9.20;;;6.40;99.90;;;;;;5041315;28;20851;-76
2021/11/23 12:23:50;;;;;;;15.77;9.70;;;6.50;99.90;;;;;;5041236;28;20226;-77
2021/11/23 12:26:18;;;;;;;14.10;9.47;;;6.60;99.90;;;;;;5042282;28;20174;-74
2021/11/23 12:28:56;;;;;;;14.40;9.20;;;6.60;99.90;;;;;;5042201;28;20187;-75
2021/11/23 12:31:24;;;;;;;16.30;9.67;;;6.60;99.90;;;;;;5043146;28;20767;-80
2021/11/23 12:33:53;;;;;;;16.13;10.27;;;6.70;99.90;;;;;;5043378;28;20280;-75
2021/11/23 12:36:23;;;;;;;16.37;9.60;;;6.70;99.90;;;;;;5044165;28;20730;-75
2021/11/23 12:38:51;;;;;;;16.27;10.30;;;6.90;99.90;;;;;;5044219;28;20208;-75
2021/11/23 12:41:24;;;;;;;18.13;10.03;;;7.00;99.90;;;;;;5043605;28;20269;-75
2021/11/23 12:43:51;;;;;;;13.60;8.47;;;7.10;99.90;;;;;;5042940;28;20202;-75
2021/11/23 12:46:25;;;;;;;13.73;8.50;;;7.10;99.90;;;;;;5042797;28;20188;-75
2021/11/23 12:48:55;;;;;;;12.93;8.60;;;7.10;99.90;;;;;;5043535;28;20248;-76
2021/11/23 12:51:32;;;;;;;12.03;8.23;;;7.00;99.90;;;;;;5044876;28;20182;-77
2021/11/23 12:54:01;;;;;;;10.90;8.37;;;6.90;99.90;;;;;;5041936;28;20182;-75